sensor_id;sensor_type;location;lat;lon;timestamp;P1;durP1;ratioP1;P2;durP2;ratioP2
44248;SDS011;29923;48.718;9.272;2023-05-21T00:02:13;17.95;;;11.57;;
44248;SDS011;29923;48.718;9.272;2023-05-21T00:04:41;16.05;;;11.15;;
44248;SDS011;29923;48.718;9.272;2023-05-21T00:07:06;18.65;;;11.82;;
44248;SDS011;29923;48.718;9.272;2023-05-21T00:09:32;21.63;;;11.15;;
44248;SDS011;29923;48.718;9.272;2023-05-21T00:11:58;13.35;;;11.38;;
44248;SDS011;29923;48.718;9.272;2023-05-21T00:14:23;17.08;;;12.00;;
44248;SDS011;29923;48.718;9.272;2023-05-21T00:16:49;17.13;;;12.13;;
44248;SDS011;29923;48.718;9.272;2023-05-21T00:19:14;15.05;;;11.80;;
44248;SDS011;29923;48.718;9.272;2023-05-21T00:21:40;22.38;;;12.35;;
44248;SDS011;29923;48.718;9.272;2023-05-21T00:24:05;16.70;;;12.45;;
44248;SDS011;29923;48.718;9.272;2023-05-21T00:26:31;19.30;;;11.77;;
44248;SDS011;29923;48.718;9.272;2023-05-21T00:28:56;19.42;;;13.18;;
44248;SDS011;29923;48.718;9.272;2023-05-21T00:31:21;17.17;;;11.93;;
44248;SDS011;29923;48.718;9.272;2023-05-21T00:33:47;15.65;;;12.15;;
44248;SDS011;29923;48.718;9.272;2023-05-21T00:36:12;14.77;;;12.63;;
44248;SDS011;29923;48.718;9.272;2023-05-21T00:38:39;17.90;;;12.60;;
44248;SDS011;29923;48.718;9.272;2023-05-21T00:41:07;17.52;;;13.25;;
44248;SDS011;29923;48.718;9.272;2023-05-21T00:43:33;18.63;;;12.13;;
44248;SDS011;29923;48.718;9.272;2023-05-21T00:45:58;16.25;;;12.93;;
44248;SDS011;29923;48.718;9.272;2023-05-21T00:48:23;17.08;;;13.35;;
44248;SDS011;29923;48.718;9.272;2023-05-21T00:50:49;18.55;;;12.68;;
44248;SDS011;29923;48.718;9.272;2023-05-21T00:53:14;19.67;;;12.85;;
44248;SDS011;29923;48.718;9.272;2023-05-21T00:55:43;17.77;;;12.32;;
44248;SDS011;29923;48.718;9.272;2023-05-21T00:58:08;16.85;;;13.23;;
44248;SDS011;29923;48.718;9.272;2023-05-21T01:00:34;17.10;;;12.75;;
44248;SDS011;29923;48.718;9.272;2023-05-21T01:03:00;23.83;;;14.00;;
44248;SDS011;29923;48.718;9.272;2023-05-21T01:05:28;27.35;;;13.65;;
44248;SDS011;29923;48.718;9.272;2023-05-21T01:07:54;18.35;;;13.20;;
44248;SDS011;29923;48.718;9.272;2023-05-21T01:10:22;17.98;;;13.45;;
44248;SDS011;29923;48.718;9.272;2023-05-21T01:12:48;19.13;;;13.18;;
44248;SDS011;29923;48.718;9.272;2023-05-21T01:15:13;18.13;;;13.70;;
44248;SDS011;29923;48.718;9.272;2023-05-21T01:17:38;17.00;;;13.32;;
44248;SDS011;29923;48.718;9.272;2023-05-21T01:20:05;17.42;;;14.05;;
44248;SDS011;29923;48.718;9.272;2023-05-21T01:22:35;17.33;;;13.27;;
44248;SDS011;29923;48.718;9.272;2023-05-21T01:25:03;17.25;;;13.55;;
44248;SDS011;29923;48.718;9.272;2023-05-21T01:27:29;18.17;;;13.90;;
44248;SDS011;29923;48.718;9.272;2023-05-21T01:29:54;17.48;;;14.02;;
44248;SDS011;29923;48.718;9.272;2023-05-21T01:32:25;19.40;;;14.70;;
44248;SDS011;29923;48.718;9.272;2023-05-21T01:35:07;15.55;;;13.35;;
44248;SDS011;29923;48.718;9.272;2023-05-21T01:37:44;19.17;;;14.57;;
44248;SDS011;29923;48.718;9.272;2023-05-21T01:42:48;21.02;;;13.63;;
44248;SDS011;29923;48.718;9.272;2023-05-21T01:45:15;20.15;;;13.85;;
44248;SDS011;29923;48.718;9.272;2023-05-21T01:47:40;25.15;;;14.55;;
44248;SDS011;29923;48.718;9.272;2023-05-21T01:50:09;19.00;;;14.70;;
44248;SDS011;29923;48.718;9.272;2023-05-21T01:52:35;21.40;;;14.38;;
44248;SDS011;29923;48.718;9.272;2023-05-21T01:55:01;20.55;;;14.68;;
44248;SDS011;29923;48.718;9.272;2023-05-21T01:57:27;19.02;;;14.02;;
44248;SDS011;29923;48.718;9.272;2023-05-21T01:59:52;23.60;;;14.90;;
44248;SDS011;29923;48.718;9.272;2023-05-21T02:02:18;22.48;;;14.45;;
44248;SDS011;29923;48.718;9.272;2023-05-21T02:04:44;22.48;;;15.10;;
44248;SDS011;29923;48.718;9.272;2023-05-21T02:07:10;24.15;;;16.13;;
44248;SDS011;29923;48.718;9.272;2023-05-21T02:09:38;18.92;;;15.57;;
44248;SDS011;29923;48.718;9.272;2023-05-21T02:12:04;18.45;;;15.30;;
44248;SDS011;29923;48.718;9.272;2023-05-21T02:14:29;20.25;;;15.82;;
44248;SDS011;29923;48.718;9.272;2023-05-21T02:16:57;20.50;;;16.00;;
44248;SDS011;29923;48.718;9.272;2023-05-21T02:19:23;23.50;;;15.38;;
44248;SDS011;29923;48.718;9.272;2023-05-21T02:21:48;18.75;;;15.45;;
44248;SDS011;29923;48.718;9.272;2023-05-21T02:24:14;23.58;;;16.88;;
44248;SDS011;29923;48.718;9.272;2023-05-21T02:26:39;22.52;;;15.60;;
44248;SDS011;29923;48.718;9.272;2023-05-21T02:29:05;22.88;;;16.90;;
44248;SDS011;29923;48.718;9.272;2023-05-21T02:31:30;21.50;;;15.77;;
44248;SDS011;29923;48.718;9.272;2023-05-21T02:33:56;21.83;;;16.13;;
44248;SDS011;29923;48.718;9.272;2023-05-21T02:36:21;26.33;;;15.85;;
44248;SDS011;29923;48.718;9.272;2023-05-21T02:38:49;30.88;;;24.70;;
44248;SDS011;29923;48.718;9.272;2023-05-21T02:41:14;21.13;;;16.55;;
44248;SDS011;29923;48.718;9.272;2023-05-21T02:43:39;22.15;;;16.90;;
44248;SDS011;29923;48.718;9.272;2023-05-21T02:46:05;28.55;;;17.23;;
44248;SDS011;29923;48.718;9.272;2023-05-21T02:48:31;22.83;;;17.50;;
44248;SDS011;29923;48.718;9.272;2023-05-21T02:50:57;21.90;;;17.25;;
44248;SDS011;29923;48.718;9.272;2023-05-21T02:53:22;25.63;;;17.20;;
44248;SDS011;29923;48.718;9.272;2023-05-21T02:55:48;18.98;;;16.33;;
44248;SDS011;29923;48.718;9.272;2023-05-21T02:58:13;26.25;;;17.60;;
44248;SDS011;29923;48.718;9.272;2023-05-21T03:00:39;23.67;;;17.25;;
44248;SDS011;29923;48.718;9.272;2023-05-21T03:03:04;25.73;;;16.45;;
44248;SDS011;29923;48.718;9.272;2023-05-21T03:05:29;38.67;;;18.70;;
44248;SDS011;29923;48.718;9.272;2023-05-21T03:07:55;25.25;;;17.48;;
44248;SDS011;29923;48.718;9.272;2023-05-21T03:10:20;24.67;;;18.20;;
44248;SDS011;29923;48.718;9.272;2023-05-21T03:12:46;29.48;;;17.42;;
44248;SDS011;29923;48.718;9.272;2023-05-21T03:15:11;23.30;;;17.45;;
44248;SDS011;29923;48.718;9.272;2023-05-21T03:17:39;26.58;;;18.45;;
44248;SDS011;29923;48.718;9.272;2023-05-21T03:20:07;24.98;;;18.95;;
44248;SDS011;29923;48.718;9.272;2023-05-21T03:22:33;22.38;;;18.33;;
44248;SDS011;29923;48.718;9.272;2023-05-21T03:24:59;26.77;;;18.33;;
44248;SDS011;29923;48.718;9.272;2023-05-21T03:27:25;27.00;;;19.10;;
44248;SDS011;29923;48.718;9.272;2023-05-21T03:29:51;25.35;;;18.55;;
44248;SDS011;29923;48.718;9.272;2023-05-21T03:32:18;23.38;;;18.23;;
44248;SDS011;29923;48.718;9.272;2023-05-21T03:34:44;22.00;;;17.42;;
44248;SDS011;29923;48.718;9.272;2023-05-21T03:37:09;23.27;;;17.83;;
44248;SDS011;29923;48.718;9.272;2023-05-21T03:39:35;23.30;;;18.52;;
44248;SDS011;29923;48.718;9.272;2023-05-21T03:42:00;21.55;;;16.83;;
44248;SDS011;29923;48.718;9.272;2023-05-21T03:44:26;24.77;;;18.33;;
44248;SDS011;29923;48.718;9.272;2023-05-21T03:46:51;34.88;;;18.73;;
44248;SDS011;29923;48.718;9.272;2023-05-21T03:49:17;23.48;;;18.35;;
44248;SDS011;29923;48.718;9.272;2023-05-21T03:51:42;27.60;;;19.88;;
44248;SDS011;29923;48.718;9.272;2023-05-21T03:54:07;27.88;;;17.88;;
44248;SDS011;29923;48.718;9.272;2023-05-21T03:56:33;31.90;;;20.08;;
44248;SDS011;29923;48.718;9.272;2023-05-21T03:58:58;22.85;;;18.45;;
44248;SDS011;29923;48.718;9.272;2023-05-21T04:01:24;27.15;;;18.00;;
44248;SDS011;29923;48.718;9.272;2023-05-21T04:03:49;26.90;;;18.92;;
44248;SDS011;29923;48.718;9.272;2023-05-21T04:06:14;25.08;;;18.67;;
44248;SDS011;29923;48.718;9.272;2023-05-21T04:08:40;20.42;;;17.50;;
44248;SDS011;29923;48.718;9.272;2023-05-21T04:11:06;25.35;;;19.25;;
44248;SDS011;29923;48.718;9.272;2023-05-21T04:13:31;24.73;;;18.73;;
44248;SDS011;29923;48.718;9.272;2023-05-21T04:15:57;25.92;;;19.58;;
44248;SDS011;29923;48.718;9.272;2023-05-21T04:18:22;28.10;;;19.77;;
44248;SDS011;29923;48.718;9.272;2023-05-21T04:20:49;26.48;;;18.60;;
44248;SDS011;29923;48.718;9.272;2023-05-21T04:23:15;25.35;;;18.75;;
44248;SDS011;29923;48.718;9.272;2023-05-21T04:25:40;25.77;;;19.33;;
44248;SDS011;29923;48.718;9.272;2023-05-21T04:28:06;29.15;;;19.90;;
44248;SDS011;29923;48.718;9.272;2023-05-21T04:30:32;26.05;;;19.10;;
44248;SDS011;29923;48.718;9.272;2023-05-21T04:32:59;27.55;;;20.95;;
44248;SDS011;29923;48.718;9.272;2023-05-21T04:35:25;24.85;;;19.60;;
44248;SDS011;29923;48.718;9.272;2023-05-21T04:37:51;28.48;;;19.75;;
44248;SDS011;29923;48.718;9.272;2023-05-21T04:40:18;24.38;;;18.92;;
44248;SDS011;29923;48.718;9.272;2023-05-21T04:42:48;27.20;;;20.80;;
44248;SDS011;29923;48.718;9.272;2023-05-21T04:45:14;25.08;;;20.25;;
44248;SDS011;29923;48.718;9.272;2023-05-21T04:47:41;26.05;;;19.77;;
44248;SDS011;29923;48.718;9.272;2023-05-21T04:50:07;23.65;;;18.70;;
44248;SDS011;29923;48.718;9.272;2023-05-21T04:52:32;26.42;;;20.15;;
44248;SDS011;29923;48.718;9.272;2023-05-21T04:54:58;26.27;;;19.45;;
44248;SDS011;29923;48.718;9.272;2023-05-21T04:57:24;24.17;;;19.50;;
44248;SDS011;29923;48.718;9.272;2023-05-21T04:59:49;27.20;;;19.63;;
44248;SDS011;29923;48.718;9.272;2023-05-21T05:02:15;31.15;;;19.10;;
44248;SDS011;29923;48.718;9.272;2023-05-21T05:04:40;24.38;;;18.50;;
44248;SDS011;29923;48.718;9.272;2023-05-21T05:07:07;27.05;;;18.10;;
44248;SDS011;29923;48.718;9.272;2023-05-21T05:09:33;25.40;;;19.40;;
44248;SDS011;29923;48.718;9.272;2023-05-21T05:11:58;25.98;;;19.15;;
44248;SDS011;29923;48.718;9.272;2023-05-21T05:14:24;24.55;;;18.95;;
44248;SDS011;29923;48.718;9.272;2023-05-21T05:16:49;24.63;;;18.25;;
44248;SDS011;29923;48.718;9.272;2023-05-21T05:19:14;22.58;;;17.83;;
44248;SDS011;29923;48.718;9.272;2023-05-21T05:21:40;23.25;;;18.63;;
44248;SDS011;29923;48.718;9.272;2023-05-21T05:24:05;23.83;;;16.85;;
44248;SDS011;29923;48.718;9.272;2023-05-21T05:26:30;25.23;;;17.90;;
44248;SDS011;29923;48.718;9.272;2023-05-21T05:28:56;28.33;;;18.95;;
44248;SDS011;29923;48.718;9.272;2023-05-21T05:31:21;24.10;;;19.05;;
44248;SDS011;29923;48.718;9.272;2023-05-21T05:33:47;24.23;;;18.65;;
44248;SDS011;29923;48.718;9.272;2023-05-21T05:36:12;27.30;;;19.35;;
44248;SDS011;29923;48.718;9.272;2023-05-21T05:38:38;24.77;;;17.30;;
44248;SDS011;29923;48.718;9.272;2023-05-21T05:41:04;25.73;;;19.95;;
44248;SDS011;29923;48.718;9.272;2023-05-21T05:43:29;22.90;;;18.02;;
44248;SDS011;29923;48.718;9.272;2023-05-21T05:45:54;31.08;;;18.85;;
44248;SDS011;29923;48.718;9.272;2023-05-21T05:48:20;26.02;;;19.25;;
44248;SDS011;29923;48.718;9.272;2023-05-21T05:50:46;22.38;;;17.80;;
44248;SDS011;29923;48.718;9.272;2023-05-21T05:53:11;25.85;;;20.00;;
44248;SDS011;29923;48.718;9.272;2023-05-21T05:55:40;28.02;;;21.50;;
44248;SDS011;29923;48.718;9.272;2023-05-21T05:58:05;24.80;;;18.83;;
44248;SDS011;29923;48.718;9.272;2023-05-21T06:00:30;26.55;;;19.17;;
44248;SDS011;29923;48.718;9.272;2023-05-21T06:02:56;26.23;;;18.05;;
44248;SDS011;29923;48.718;9.272;2023-05-21T06:05:21;28.67;;;18.00;;
44248;SDS011;29923;48.718;9.272;2023-05-21T06:07:47;29.30;;;17.75;;
44248;SDS011;29923;48.718;9.272;2023-05-21T06:10:12;26.02;;;16.38;;
44248;SDS011;29923;48.718;9.272;2023-05-21T06:12:37;27.52;;;20.05;;
44248;SDS011;29923;48.718;9.272;2023-05-21T06:15:03;21.75;;;17.08;;
44248;SDS011;29923;48.718;9.272;2023-05-21T06:17:29;24.55;;;18.45;;
44248;SDS011;29923;48.718;9.272;2023-05-21T06:19:55;23.98;;;18.17;;
44248;SDS011;29923;48.718;9.272;2023-05-21T06:22:20;22.92;;;17.90;;
44248;SDS011;29923;48.718;9.272;2023-05-21T06:24:46;19.92;;;16.08;;
44248;SDS011;29923;48.718;9.272;2023-05-21T06:27:11;22.45;;;16.55;;
44248;SDS011;29923;48.718;9.272;2023-05-21T06:29:37;21.90;;;14.25;;
44248;SDS011;29923;48.718;9.272;2023-05-21T06:32:04;22.15;;;15.75;;
44248;SDS011;29923;48.718;9.272;2023-05-21T06:34:30;22.05;;;16.10;;
44248;SDS011;29923;48.718;9.272;2023-05-21T06:36:56;20.13;;;15.07;;
44248;SDS011;29923;48.718;9.272;2023-05-21T06:39:21;20.25;;;14.57;;
44248;SDS011;29923;48.718;9.272;2023-05-21T06:41:48;20.25;;;14.98;;
44248;SDS011;29923;48.718;9.272;2023-05-21T06:44:13;17.15;;;14.02;;
44248;SDS011;29923;48.718;9.272;2023-05-21T06:46:39;24.92;;;15.70;;
44248;SDS011;29923;48.718;9.272;2023-05-21T06:49:05;20.23;;;15.45;;
44248;SDS011;29923;48.718;9.272;2023-05-21T06:51:31;18.65;;;13.80;;
44248;SDS011;29923;48.718;9.272;2023-05-21T06:53:56;16.73;;;13.57;;
44248;SDS011;29923;48.718;9.272;2023-05-21T06:56:21;16.50;;;13.95;;
44248;SDS011;29923;48.718;9.272;2023-05-21T06:58:47;18.80;;;13.65;;
44248;SDS011;29923;48.718;9.272;2023-05-21T07:01:12;23.95;;;14.57;;
44248;SDS011;29923;48.718;9.272;2023-05-21T07:03:37;21.15;;;13.93;;
44248;SDS011;29923;48.718;9.272;2023-05-21T07:06:03;16.52;;;13.80;;
44248;SDS011;29923;48.718;9.272;2023-05-21T07:08:28;18.83;;;13.90;;
44248;SDS011;29923;48.718;9.272;2023-05-21T07:10:54;22.58;;;14.75;;
44248;SDS011;29923;48.718;9.272;2023-05-21T07:13:20;19.02;;;12.68;;
44248;SDS011;29923;48.718;9.272;2023-05-21T07:15:45;14.93;;;12.52;;
44248;SDS011;29923;48.718;9.272;2023-05-21T07:18:11;22.73;;;17.30;;
44248;SDS011;29923;48.718;9.272;2023-05-21T07:20:37;18.85;;;13.45;;
44248;SDS011;29923;48.718;9.272;2023-05-21T07:23:02;15.77;;;13.52;;
44248;SDS011;29923;48.718;9.272;2023-05-21T07:25:28;16.42;;;13.15;;
44248;SDS011;29923;48.718;9.272;2023-05-21T07:27:54;14.07;;;11.82;;
44248;SDS011;29923;48.718;9.272;2023-05-21T07:30:20;16.05;;;12.32;;
44248;SDS011;29923;48.718;9.272;2023-05-21T07:32:45;17.83;;;11.68;;
44248;SDS011;29923;48.718;9.272;2023-05-21T07:35:10;16.15;;;11.02;;
44248;SDS011;29923;48.718;9.272;2023-05-21T07:37:36;14.18;;;11.13;;
44248;SDS011;29923;48.718;9.272;2023-05-21T07:40:01;17.38;;;11.18;;
44248;SDS011;29923;48.718;9.272;2023-05-21T07:42:26;12.48;;;9.98;;
44248;SDS011;29923;48.718;9.272;2023-05-21T07:44:52;17.35;;;10.10;;
44248;SDS011;29923;48.718;9.272;2023-05-21T07:47:17;13.27;;;10.15;;
44248;SDS011;29923;48.718;9.272;2023-05-21T07:49:42;10.98;;;9.05;;
44248;SDS011;29923;48.718;9.272;2023-05-21T07:52:08;10.10;;;9.00;;
44248;SDS011;29923;48.718;9.272;2023-05-21T07:54:33;12.93;;;10.95;;
44248;SDS011;29923;48.718;9.272;2023-05-21T07:56:59;10.77;;;8.52;;
44248;SDS011;29923;48.718;9.272;2023-05-21T07:59:26;11.48;;;8.88;;
44248;SDS011;29923;48.718;9.272;2023-05-21T08:01:52;18.08;;;9.25;;
44248;SDS011;29923;48.718;9.272;2023-05-21T08:04:17;12.90;;;8.95;;
44248;SDS011;29923;48.718;9.272;2023-05-21T08:06:43;10.73;;;8.30;;
44248;SDS011;29923;48.718;9.272;2023-05-21T08:09:08;9.68;;;8.43;;
44248;SDS011;29923;48.718;9.272;2023-05-21T08:11:33;12.95;;;8.65;;
44248;SDS011;29923;48.718;9.272;2023-05-21T08:13:59;11.00;;;8.27;;
44248;SDS011;29923;48.718;9.272;2023-05-21T08:16:24;16.05;;;8.57;;
44248;SDS011;29923;48.718;9.272;2023-05-21T08:18:49;10.48;;;8.10;;
44248;SDS011;29923;48.718;9.272;2023-05-21T08:21:15;13.13;;;8.10;;
44248;SDS011;29923;48.718;9.272;2023-05-21T08:23:41;11.00;;;7.90;;
44248;SDS011;29923;48.718;9.272;2023-05-21T08:26:07;11.35;;;8.38;;
44248;SDS011;29923;48.718;9.272;2023-05-21T08:28:32;14.07;;;8.35;;
44248;SDS011;29923;48.718;9.272;2023-05-21T08:30:59;10.43;;;8.13;;
44248;SDS011;29923;48.718;9.272;2023-05-21T08:33:25;13.52;;;8.18;;
44248;SDS011;29923;48.718;9.272;2023-05-21T08:35:51;11.05;;;8.88;;
44248;SDS011;29923;48.718;9.272;2023-05-21T08:38:16;13.43;;;7.95;;
44248;SDS011;29923;48.718;9.272;2023-05-21T08:40:41;11.20;;;7.80;;
44248;SDS011;29923;48.718;9.272;2023-05-21T08:43:07;11.38;;;8.52;;
44248;SDS011;29923;48.718;9.272;2023-05-21T08:45:37;11.27;;;8.77;;
44248;SDS011;29923;48.718;9.272;2023-05-21T08:48:05;10.77;;;8.57;;
44248;SDS011;29923;48.718;9.272;2023-05-21T08:50:31;15.10;;;9.13;;
44248;SDS011;29923;48.718;9.272;2023-05-21T08:52:56;11.52;;;8.57;;
44248;SDS011;29923;48.718;9.272;2023-05-21T08:55:25;12.85;;;8.43;;
44248;SDS011;29923;48.718;9.272;2023-05-21T08:57:51;13.32;;;8.65;;
44248;SDS011;29923;48.718;9.272;2023-05-21T09:00:18;12.82;;;9.80;;
44248;SDS011;29923;48.718;9.272;2023-05-21T09:02:45;11.45;;;9.15;;
44248;SDS011;29923;48.718;9.272;2023-05-21T09:05:10;11.80;;;9.00;;
44248;SDS011;29923;48.718;9.272;2023-05-21T09:07:38;14.18;;;9.55;;
44248;SDS011;29923;48.718;9.272;2023-05-21T09:10:07;11.27;;;10.00;;
44248;SDS011;29923;48.718;9.272;2023-05-21T09:12:33;11.25;;;8.02;;
44248;SDS011;29923;48.718;9.272;2023-05-21T09:15:00;11.88;;;7.63;;
44248;SDS011;29923;48.718;9.272;2023-05-21T09:17:25;11.65;;;9.02;;
44248;SDS011;29923;48.718;9.272;2023-05-21T09:22:45;16.20;;;9.25;;
44248;SDS011;29923;48.718;9.272;2023-05-21T09:25:15;15.38;;;9.00;;
44248;SDS011;29923;48.718;9.272;2023-05-21T09:27:41;15.75;;;8.73;;
44248;SDS011;29923;48.718;9.272;2023-05-21T09:30:11;11.77;;;9.52;;
44248;SDS011;29923;48.718;9.272;2023-05-21T09:32:38;12.63;;;9.45;;
44248;SDS011;29923;48.718;9.272;2023-05-21T09:35:08;11.30;;;9.68;;
44248;SDS011;29923;48.718;9.272;2023-05-21T09:37:38;13.80;;;10.48;;
44248;SDS011;29923;48.718;9.272;2023-05-21T09:40:13;16.73;;;10.73;;
44248;SDS011;29923;48.718;9.272;2023-05-21T09:42:39;12.98;;;10.27;;
44248;SDS011;29923;48.718;9.272;2023-05-21T09:45:10;10.85;;;9.63;;
44248;SDS011;29923;48.718;9.272;2023-05-21T09:47:42;13.07;;;10.23;;
44248;SDS011;29923;48.718;9.272;2023-05-21T09:50:11;15.65;;;10.75;;
44248;SDS011;29923;48.718;9.272;2023-05-21T09:52:38;13.07;;;10.43;;
44248;SDS011;29923;48.718;9.272;2023-05-21T09:55:09;13.10;;;9.88;;
44248;SDS011;29923;48.718;9.272;2023-05-21T09:57:42;12.55;;;9.95;;
44248;SDS011;29923;48.718;9.272;2023-05-21T10:00:16;17.88;;;10.32;;
44248;SDS011;29923;48.718;9.272;2023-05-21T10:02:49;14.25;;;10.23;;
44248;SDS011;29923;48.718;9.272;2023-05-21T10:05:18;15.35;;;10.13;;
44248;SDS011;29923;48.718;9.272;2023-05-21T10:07:44;16.35;;;9.63;;
44248;SDS011;29923;48.718;9.272;2023-05-21T10:10:14;14.05;;;9.93;;
44248;SDS011;29923;48.718;9.272;2023-05-21T10:12:43;12.95;;;9.20;;
44248;SDS011;29923;48.718;9.272;2023-05-21T10:15:13;13.60;;;8.63;;
44248;SDS011;29923;48.718;9.272;2023-05-21T10:17:40;10.60;;;8.70;;
44248;SDS011;29923;48.718;9.272;2023-05-21T10:20:07;13.70;;;9.00;;
44248;SDS011;29923;48.718;9.272;2023-05-21T10:22:34;13.30;;;8.80;;
44248;SDS011;29923;48.718;9.272;2023-05-21T10:25:00;11.68;;;9.00;;
44248;SDS011;29923;48.718;9.272;2023-05-21T10:27:27;16.13;;;8.20;;
44248;SDS011;29923;48.718;9.272;2023-05-21T10:29:53;14.00;;;7.97;;
44248;SDS011;29923;48.718;9.272;2023-05-21T10:32:21;10.93;;;8.00;;
44248;SDS011;29923;48.718;9.272;2023-05-21T10:34:46;10.68;;;8.55;;
44248;SDS011;29923;48.718;9.272;2023-05-21T10:37:12;11.52;;;8.65;;
44248;SDS011;29923;48.718;9.272;2023-05-21T10:39:37;11.63;;;8.75;;
44248;SDS011;29923;48.718;9.272;2023-05-21T10:49:50;10.07;;;7.97;;
44248;SDS011;29923;48.718;9.272;2023-05-21T10:55:28;15.90;;;8.55;;
44248;SDS011;29923;48.718;9.272;2023-05-21T11:00:56;14.40;;;7.82;;
44248;SDS011;29923;48.718;9.272;2023-05-21T11:03:24;12.13;;;8.50;;
44248;SDS011;29923;48.718;9.272;2023-05-21T11:05:50;11.25;;;7.80;;
44248;SDS011;29923;48.718;9.272;2023-05-21T11:08:50;9.23;;;8.02;;
44248;SDS011;29923;48.718;9.272;2023-05-21T11:11:11;12.35;;;7.97;;
44248;SDS011;29923;48.718;9.272;2023-05-21T11:13:45;10.27;;;8.23;;
44248;SDS011;29923;48.718;9.272;2023-05-21T11:16:13;12.20;;;7.97;;
44248;SDS011;29923;48.718;9.272;2023-05-21T11:21:08;8.55;;;7.47;;
44248;SDS011;29923;48.718;9.272;2023-05-21T11:23:47;11.32;;;7.53;;
44248;SDS011;29923;48.718;9.272;2023-05-21T11:26:16;11.82;;;7.68;;
44248;SDS011;29923;48.718;9.272;2023-05-21T11:28:42;13.20;;;7.85;;
44248;SDS011;29923;48.718;9.272;2023-05-21T11:34:07;10.45;;;7.40;;
44248;SDS011;29923;48.718;9.272;2023-05-21T11:39:55;10.27;;;7.75;;
44248;SDS011;29923;48.718;9.272;2023-05-21T11:42:28;17.92;;;8.95;;
44248;SDS011;29923;48.718;9.272;2023-05-21T11:44:57;9.38;;;7.78;;
44248;SDS011;29923;48.718;9.272;2023-05-21T11:47:24;15.15;;;9.18;;
44248;SDS011;29923;48.718;9.272;2023-05-21T11:49:52;12.57;;;7.70;;
44248;SDS011;29923;48.718;9.272;2023-05-21T11:52:18;9.13;;;6.72;;
44248;SDS011;29923;48.718;9.272;2023-05-21T11:54:45;8.65;;;6.78;;
44248;SDS011;29923;48.718;9.272;2023-05-21T11:57:12;17.98;;;6.80;;
44248;SDS011;29923;48.718;9.272;2023-05-21T11:59:43;10.63;;;7.15;;
44248;SDS011;29923;48.718;9.272;2023-05-21T12:02:14;11.93;;;7.47;;
44248;SDS011;29923;48.718;9.272;2023-05-21T12:04:41;7.95;;;6.88;;
44248;SDS011;29923;48.718;9.272;2023-05-21T12:07:07;8.90;;;7.28;;
44248;SDS011;29923;48.718;9.272;2023-05-21T12:09:43;10.88;;;6.80;;
44248;SDS011;29923;48.718;9.272;2023-05-21T12:12:09;11.55;;;7.55;;
44248;SDS011;29923;48.718;9.272;2023-05-21T12:14:37;8.55;;;6.43;;
44248;SDS011;29923;48.718;9.272;2023-05-21T12:17:03;7.43;;;6.38;;
44248;SDS011;29923;48.718;9.272;2023-05-21T12:19:31;10.10;;;6.47;;
44248;SDS011;29923;48.718;9.272;2023-05-21T12:22:02;10.52;;;6.70;;
44248;SDS011;29923;48.718;9.272;2023-05-21T12:24:28;9.95;;;6.03;;
44248;SDS011;29923;48.718;9.272;2023-05-21T12:26:53;8.27;;;6.40;;
44248;SDS011;29923;48.718;9.272;2023-05-21T12:29:19;10.75;;;7.28;;
44248;SDS011;29923;48.718;9.272;2023-05-21T12:31:48;8.75;;;7.03;;
44248;SDS011;29923;48.718;9.272;2023-05-21T12:34:14;9.50;;;6.53;;
44248;SDS011;29923;48.718;9.272;2023-05-21T12:36:42;18.25;;;6.53;;
44248;SDS011;29923;48.718;9.272;2023-05-21T12:39:12;11.65;;;5.50;;
44248;SDS011;29923;48.718;9.272;2023-05-21T12:41:38;7.05;;;5.53;;
44248;SDS011;29923;48.718;9.272;2023-05-21T12:44:03;6.90;;;5.78;;
44248;SDS011;29923;48.718;9.272;2023-05-21T12:46:29;6.95;;;5.78;;
44248;SDS011;29923;48.718;9.272;2023-05-21T12:48:55;10.10;;;5.57;;
44248;SDS011;29923;48.718;9.272;2023-05-21T12:51:21;7.03;;;5.40;;
44248;SDS011;29923;48.718;9.272;2023-05-21T12:53:46;6.85;;;5.72;;
44248;SDS011;29923;48.718;9.272;2023-05-21T12:56:12;8.57;;;5.00;;
44248;SDS011;29923;48.718;9.272;2023-05-21T12:58:39;9.65;;;5.72;;
44248;SDS011;29923;48.718;9.272;2023-05-21T13:01:08;6.18;;;4.90;;
44248;SDS011;29923;48.718;9.272;2023-05-21T13:03:37;6.13;;;5.20;;
44248;SDS011;29923;48.718;9.272;2023-05-21T13:06:04;6.15;;;5.05;;
44248;SDS011;29923;48.718;9.272;2023-05-21T13:08:30;10.48;;;5.45;;
44248;SDS011;29923;48.718;9.272;2023-05-21T13:10:58;8.88;;;5.43;;
44248;SDS011;29923;48.718;9.272;2023-05-21T13:13:23;7.95;;;5.35;;
44248;SDS011;29923;48.718;9.272;2023-05-21T13:15:49;10.43;;;5.38;;
44248;SDS011;29923;48.718;9.272;2023-05-21T13:18:14;7.43;;;5.72;;
44248;SDS011;29923;48.718;9.272;2023-05-21T13:20:40;7.38;;;5.20;;
44248;SDS011;29923;48.718;9.272;2023-05-21T13:23:05;8.18;;;5.35;;
44248;SDS011;29923;48.718;9.272;2023-05-21T13:25:30;8.68;;;5.30;;
44248;SDS011;29923;48.718;9.272;2023-05-21T13:28:02;8.55;;;4.80;;
44248;SDS011;29923;48.718;9.272;2023-05-21T13:30:29;6.20;;;4.90;;
44248;SDS011;29923;48.718;9.272;2023-05-21T13:32:54;6.05;;;4.60;;
44248;SDS011;29923;48.718;9.272;2023-05-21T13:35:22;6.68;;;4.50;;
44248;SDS011;29923;48.718;9.272;2023-05-21T13:37:47;9.02;;;5.32;;
44248;SDS011;29923;48.718;9.272;2023-05-21T13:40:13;5.88;;;4.70;;
44248;SDS011;29923;48.718;9.272;2023-05-21T13:42:39;6.80;;;4.70;;
44248;SDS011;29923;48.718;9.272;2023-05-21T13:45:08;8.15;;;5.03;;
44248;SDS011;29923;48.718;9.272;2023-05-21T13:47:35;10.25;;;5.03;;
44248;SDS011;29923;48.718;9.272;2023-05-21T13:50:01;7.70;;;4.70;;
44248;SDS011;29923;48.718;9.272;2023-05-21T13:52:26;6.75;;;5.30;;
44248;SDS011;29923;48.718;9.272;2023-05-21T13:54:52;5.45;;;4.63;;
44248;SDS011;29923;48.718;9.272;2023-05-21T13:57:17;6.05;;;4.90;;
44248;SDS011;29923;48.718;9.272;2023-05-21T13:59:42;7.72;;;4.72;;
44248;SDS011;29923;48.718;9.272;2023-05-21T14:02:08;7.32;;;4.40;;
44248;SDS011;29923;48.718;9.272;2023-05-21T14:04:34;7.30;;;5.20;;
44248;SDS011;29923;48.718;9.272;2023-05-21T14:07:00;7.35;;;4.63;;
44248;SDS011;29923;48.718;9.272;2023-05-21T14:09:25;6.53;;;4.55;;
44248;SDS011;29923;48.718;9.272;2023-05-21T14:11:51;8.85;;;4.45;;
44248;SDS011;29923;48.718;9.272;2023-05-21T14:14:17;8.95;;;4.72;;
44248;SDS011;29923;48.718;9.272;2023-05-21T14:16:46;7.32;;;4.30;;
44248;SDS011;29923;48.718;9.272;2023-05-21T14:19:11;6.60;;;4.72;;
44248;SDS011;29923;48.718;9.272;2023-05-21T14:21:36;5.63;;;4.45;;
44248;SDS011;29923;48.718;9.272;2023-05-21T14:24:02;7.05;;;4.72;;
44248;SDS011;29923;48.718;9.272;2023-05-21T14:26:27;18.55;;;5.22;;
44248;SDS011;29923;48.718;9.272;2023-05-21T14:28:53;6.35;;;4.32;;
44248;SDS011;29923;48.718;9.272;2023-05-21T14:31:19;7.43;;;5.20;;
44248;SDS011;29923;48.718;9.272;2023-05-21T14:33:45;5.45;;;4.40;;
44248;SDS011;29923;48.718;9.272;2023-05-21T14:36:11;15.38;;;4.57;;
44248;SDS011;29923;48.718;9.272;2023-05-21T14:38:36;6.40;;;4.20;;
44248;SDS011;29923;48.718;9.272;2023-05-21T14:41:01;9.40;;;4.82;;
44248;SDS011;29923;48.718;9.272;2023-05-21T14:43:27;9.98;;;6.50;;
44248;SDS011;29923;48.718;9.272;2023-05-21T14:45:52;7.88;;;4.63;;
44248;SDS011;29923;48.718;9.272;2023-05-21T14:48:18;13.00;;;4.82;;
44248;SDS011;29923;48.718;9.272;2023-05-21T14:50:46;8.25;;;4.68;;
44248;SDS011;29923;48.718;9.272;2023-05-21T14:53:12;9.07;;;5.60;;